Time;durP1;ratioP1;P1;durP2;ratioP2;P2;SDS_P1;SDS_P2;PMS_P1;PMS_P2;Temp;Humidity;BMP_temperature;BMP_pressure;BME280_temperature;BME280_humidity;BME280_pressure;Samples;Min_cycle;Max_cycle;Signal;HPM_P1;HPM_P2
2023/08/06 00:02:12;;;;;;;4.03;2.67;;;15.00;99.90;;;;;;5036088;28;20017;-75
2023/08/06 00:04:38;;;;;;;6.60;1.80;;;15.00;99.90;;;;;;5036599;28;20029;-75
2023/08/06 00:07:04;;;;;;;3.20;2.10;;;15.00;99.90;;;;;;5036145;28;20082;-75
2023/08/06 00:09:29;;;;;;;4.80;2.08;;;15.00;99.90;;;;;;5035915;28;20100;-75
2023/08/06 00:11:55;;;;;;;3.55;1.65;;;15.00;99.90;;;;;;5035655;28;20160;-75
2023/08/06 00:14:21;;;;;;;2.92;2.17;;;15.10;99.90;;;;;;5034564;28;20014;-75
2023/08/06 00:16:46;;;;;;;3.92;1.52;;;15.10;99.90;;;;;;5035854;28;20021;-75
2023/08/06 00:19:12;;;;;;;3.10;1.98;;;15.00;99.90;;;;;;5036258;28;20079;-75
2023/08/06 00:21:37;;;;;;;4.65;2.28;;;15.00;99.90;;;;;;5035634;28;20036;-75
2023/08/06 00:24:03;;;;;;;3.33;1.58;;;15.10;99.90;;;;;;5034348;28;20116;-75
2023/08/06 00:26:29;;;;;;;5.32;2.38;;;15.00;99.90;;;;;;5035792;28;20101;-75
2023/08/06 00:28:54;;;;;;;6.13;2.15;;;15.00;99.90;;;;;;5034298;28;20026;-75
2023/08/06 00:31:20;;;;;;;5.40;2.40;;;15.00;99.90;;;;;;5036114;28;20033;-75
2023/08/06 00:33:45;;;;;;;5.15;2.55;;;15.00;99.90;;;;;;5034161;28;20080;-75
2023/08/06 00:36:11;;;;;;;4.00;2.20;;;15.00;99.90;;;;;;5035521;28;20017;-75
2023/08/06 00:38:36;;;;;;;4.57;2.33;;;15.00;99.90;;;;;;5035411;28;20018;-75
2023/08/06 00:41:02;;;;;;;10.13;2.03;;;15.00;99.90;;;;;;5036036;28;20040;-74
2023/08/06 00:43:27;;;;;;;4.22;2.35;;;15.00;99.90;;;;;;5035498;28;20029;-75
2023/08/06 00:45:53;;;;;;;4.10;2.25;;;15.00;99.90;;;;;;5035271;28;20078;-75
2023/08/06 00:48:20;;;;;;;4.40;2.05;;;15.00;99.90;;;;;;5035780;28;20029;-75
2023/08/06 00:50:46;;;;;;;3.97;2.03;;;15.10;99.90;;;;;;5033937;28;20029;-75
2023/08/06 00:53:12;;;;;;;5.05;2.10;;;15.00;99.90;;;;;;5033817;28;20504;-75
2023/08/06 00:55:38;;;;;;;4.30;1.70;;;15.00;99.90;;;;;;5035226;28;20033;-75
2023/08/06 00:58:03;;;;;;;3.58;2.13;;;15.00;99.90;;;;;;5035137;28;20146;-75
2023/08/06 01:00:30;;;;;;;5.40;2.10;;;15.00;99.90;;;;;;5035007;28;20089;-75
2023/08/06 01:02:56;;;;;;;3.47;1.90;;;15.00;99.90;;;;;;5035033;28;20114;-75
2023/08/06 01:05:22;;;;;;;5.15;2.92;;;15.10;99.90;;;;;;5035506;28;20108;-75
2023/08/06 01:08:08;;;;;;;2.72;1.83;;;15.10;99.90;;;;;;5034978;28;20113;-75
2023/08/06 01:10:57;;;;;;;3.55;2.35;;;15.00;99.90;;;;;;5033661;28;20026;-75
2023/08/06 01:13:22;;;;;;;7.63;1.85;;;15.10;99.90;;;;;;5032664;28;20481;-75
2023/08/06 01:15:53;;;;;;;4.25;2.70;;;15.00;99.90;;;;;;5034816;28;20036;-75
2023/08/06 01:18:18;;;;;;;6.68;2.20;;;15.00;99.90;;;;;;5033513;28;20033;-75
2023/08/06 01:20:44;;;;;;;4.72;2.33;;;15.00;99.90;;;;;;5034112;28;20104;-75
2023/08/06 01:23:10;;;;;;;7.97;3.03;;;15.00;99.90;;;;;;5033469;28;20075;-74
2023/08/06 01:26:09;;;;;;;4.45;2.55;;;15.00;99.90;;;;;;5034434;28;20034;-75
2023/08/06 01:28:43;;;;;;;3.45;2.30;;;15.00;99.90;;;;;;5033256;28;20021;-75
2023/08/06 01:31:21;;;;;;;3.38;1.90;;;15.00;99.90;;;;;;5034652;28;20492;-75
2023/08/06 01:33:48;;;;;;;5.28;1.50;;;15.00;99.90;;;;;;5034551;28;20025;-75
2023/08/06 01:36:17;;;;;;;3.40;1.95;;;15.00;99.90;;;;;;5033066;28;20455;-74
2023/08/06 01:38:42;;;;;;;5.85;2.22;;;15.00;99.90;;;;;;5034376;28;20017;-75
2023/08/06 01:41:08;;;;;;;3.55;2.22;;;15.00;99.90;;;;;;5034301;28;20079;-75
2023/08/06 01:43:33;;;;;;;5.43;2.05;;;15.00;99.90;;;;;;5034782;28;20085;-75
2023/08/06 01:45:59;;;;;;;3.08;1.83;;;14.90;99.90;;;;;;5034172;28;20033;-75
2023/08/06 01:48:24;;;;;;;3.17;1.52;;;15.00;99.90;;;;;;5034292;28;20074;-75
2023/08/06 01:50:50;;;;;;;3.45;1.50;;;14.90;99.90;;;;;;5033989;28;20423;-75
2023/08/06 01:53:15;;;;;;;2.80;1.95;;;15.00;99.90;;;;;;5034054;28;20021;-74
2023/08/06 01:55:41;;;;;;;2.95;1.85;;;15.00;99.90;;;;;;5033921;28;20014;-75
2023/08/06 01:58:07;;;;;;;7.13;2.28;;;15.00;99.90;;;;;;5034310;28;20018;-75
2023/08/06 02:00:32;;;;;;;4.47;2.38;;;15.00;99.90;;;;;;5034873;28;20026;-75
2023/08/06 02:02:58;;;;;;;6.13;2.17;;;15.00;99.90;;;;;;5033929;28;20041;-75
2023/08/06 02:05:23;;;;;;;6.10;2.55;;;15.00;99.90;;;;;;5033747;28;20029;-74
2023/08/06 02:07:49;;;;;;;9.25;3.13;;;15.00;99.90;;;;;;5033732;28;20032;-75
2023/08/06 02:10:14;;;;;;;3.92;1.90;;;15.00;99.90;;;;;;5032387;28;20507;-75
2023/08/06 02:12:40;;;;;;;4.75;2.22;;;15.00;99.90;;;;;;5032399;28;20036;-75
2023/08/06 02:15:06;;;;;;;3.25;2.10;;;15.00;99.90;;;;;;5034090;28;20025;-75
2023/08/06 02:17:31;;;;;;;4.97;2.53;;;15.00;99.90;;;;;;5033641;28;20104;-75
2023/08/06 02:19:57;;;;;;;7.40;2.97;;;15.00;99.90;;;;;;5032363;28;20487;-75
2023/08/06 02:22:25;;;;;;;6.57;2.92;;;15.00;99.90;;;;;;5033554;28;20492;-75
2023/08/06 02:24:51;;;;;;;4.63;1.73;;;15.00;99.90;;;;;;5032060;28;20021;-75
2023/08/06 02:27:16;;;;;;;4.55;2.20;;;15.00;99.90;;;;;;5032117;28;20029;-75
2023/08/06 02:29:42;;;;;;;5.00;2.67;;;15.00;99.90;;;;;;5033415;28;20025;-75
2023/08/06 02:32:08;;;;;;;3.80;2.00;;;15.00;99.90;;;;;;5033305;28;20025;-75
2023/08/06 02:34:33;;;;;;;5.82;2.25;;;15.00;99.90;;;;;;5032069;28;20040;-75
2023/08/06 02:36:59;;;;;;;5.20;2.63;;;15.00;99.90;;;;;;5033522;28;20026;-75
2023/08/06 02:39:25;;;;;;;4.82;2.80;;;15.00;99.90;;;;;;5033288;28;20029;-75
2023/08/06 02:41:51;;;;;;;4.47;2.10;;;15.00;99.90;;;;;;5033242;28;20021;-75
2023/08/06 02:44:16;;;;;;;7.32;2.80;;;15.10;99.90;;;;;;5033172;28;20104;-74
2023/08/06 02:46:43;;;;;;;5.53;2.72;;;15.00;99.90;;;;;;5033842;28;20026;-75
2023/08/06 02:49:09;;;;;;;5.38;2.47;;;15.00;99.90;;;;;;5033208;28;20021;-75
2023/08/06 02:51:34;;;;;;;4.20;2.60;;;15.00;99.90;;;;;;5031963;28;20044;-74
2023/08/06 02:54:00;;;;;;;4.43;3.30;;;15.10;99.90;;;;;;5033112;28;20473;-75
2023/08/06 02:56:26;;;;;;;5.18;2.55;;;15.00;99.90;;;;;;5033272;28;20024;-75
2023/08/06 02:58:51;;;;;;;5.25;2.78;;;15.10;99.90;;;;;;5033030;28;20484;-75
2023/08/06 03:01:17;;;;;;;5.25;3.05;;;15.00;99.90;;;;;;5033540;28;20507;-75
2023/08/06 03:03:42;;;;;;;4.05;2.40;;;15.10;99.90;;;;;;5033093;28;20025;-74
2023/08/06 03:06:08;;;;;;;4.15;2.90;;;15.10;99.90;;;;;;5033480;28;20032;-75
2023/08/06 03:08:34;;;;;;;8.60;3.17;;;15.10;99.90;;;;;;5031725;28;20026;-75
2023/08/06 03:10:59;;;;;;;11.23;3.28;;;15.10;99.90;;;;;;5031909;28;20116;-75
2023/08/06 03:13:25;;;;;;;6.45;3.13;;;15.10;99.90;;;;;;5033494;28;20029;-75
2023/08/06 03:15:55;;;;;;;4.25;3.03;;;15.00;99.90;;;;;;5033354;28;20469;-74
2023/08/06 03:18:21;;;;;;;4.22;2.88;;;15.00;99.90;;;;;;5031626;28;20104;-75
2023/08/06 03:20:47;;;;;;;6.20;3.25;;;15.00;99.90;;;;;;5033134;28;20434;-75
2023/08/06 03:23:12;;;;;;;5.07;3.17;;;15.00;99.90;;;;;;5031852;28;20060;-75
2023/08/06 03:25:38;;;;;;;5.28;3.10;;;15.00;99.90;;;;;;5032819;28;20021;-75
2023/08/06 03:28:03;;;;;;;6.15;3.22;;;15.00;99.90;;;;;;5032800;28;20017;-74
2023/08/06 03:30:29;;;;;;;7.80;3.30;;;15.00;99.90;;;;;;5032923;28;20127;-75
2023/08/06 03:32:54;;;;;;;7.43;3.60;;;15.00;99.90;;;;;;5032794;28;20030;-75
2023/08/06 03:35:20;;;;;;;5.20;3.20;;;15.00;99.90;;;;;;5032552;28;20014;-74
2023/08/06 03:37:46;;;;;;;4.57;2.92;;;15.00;99.90;;;;;;5036748;28;20384;-74
2023/08/06 03:40:11;;;;;;;4.40;2.95;;;15.00;99.90;;;;;;5037084;28;20026;-75
2023/08/06 03:42:37;;;;;;;4.68;3.65;;;15.00;99.90;;;;;;5036505;28;20033;-74
2023/08/06 03:45:03;;;;;;;5.68;3.35;;;15.00;99.90;;;;;;5036398;28;20029;-75
2023/08/06 03:47:28;;;;;;;7.85;3.75;;;15.00;99.90;;;;;;5036412;28;20038;-74
2023/08/06 03:49:54;;;;;;;8.32;4.22;;;15.00;99.90;;;;;;5035871;28;20428;-75
2023/08/06 03:52:19;;;;;;;6.22;3.58;;;15.00;99.90;;;;;;5036375;28;20017;-75
2023/08/06 03:54:45;;;;;;;6.95;4.60;;;15.00;99.90;;;;;;5036284;28;20013;-75
2023/08/06 03:57:10;;;;;;;11.35;3.40;;;15.00;99.90;;;;;;5036344;28;20021;-75
2023/08/06 03:59:36;;;;;;;5.82;3.42;;;15.00;99.90;;;;;;5036172;28;20116;-75
2023/08/06 04:02:02;;;;;;;5.32;3.47;;;15.00;99.90;;;;;;5034959;28;20026;-75
2023/08/06 04:04:27;;;;;;;4.85;3.25;;;14.90;99.90;;;;;;5036179;28;20028;-75
2023/08/06 04:06:53;;;;;;;5.28;3.40;;;14.90;99.90;;;;;;5036243;28;20551;-75
2023/08/06 04:09:18;;;;;;;6.03;4.07;;;14.90;99.90;;;;;;5034853;28;20029;-74
2023/08/06 04:11:44;;;;;;;5.78;3.75;;;14.90;99.90;;;;;;5036604;28;20488;-75
2023/08/06 04:14:10;;;;;;;5.72;3.67;;;15.00;99.90;;;;;;5034658;28;20029;-74
2023/08/06 04:16:35;;;;;;;7.65;3.78;;;14.90;99.90;;;;;;5034734;28;20440;-74
2023/08/06 04:19:01;;;;;;;6.55;3.92;;;14.90;99.90;;;;;;5034555;28;20409;-75
2023/08/06 04:21:26;;;;;;;6.88;4.03;;;15.00;99.90;;;;;;5036462;28;20372;-75
2023/08/06 04:23:52;;;;;;;6.50;4.25;;;14.90;99.90;;;;;;5036200;28;20025;-75
2023/08/06 04:26:17;;;;;;;6.70;3.92;;;14.90;99.90;;;;;;5035698;28;20571;-75
2023/08/06 04:28:43;;;;;;;9.15;4.32;;;14.90;99.90;;;;;;5035537;28;20030;-74
2023/08/06 04:31:09;;;;;;;6.93;4.35;;;14.90;99.90;;;;;;5035661;28;20029;-74
2023/08/06 04:33:34;;;;;;;9.90;4.70;;;14.90;99.90;;;;;;5035444;28;20025;-74
2023/08/06 04:36:00;;;;;;;9.68;5.18;;;14.90;99.90;;;;;;5034301;28;20061;-75
2023/08/06 04:38:25;;;;;;;10.38;4.68;;;14.90;99.90;;;;;;5034199;28;20025;-74
2023/08/06 04:40:51;;;;;;;8.05;5.45;;;14.90;99.90;;;;;;5035453;28;20024;-74
2023/08/06 04:43:17;;;;;;;9.65;5.30;;;14.90;99.90;;;;;;5034187;28;20033;-74
2023/08/06 04:45:47;;;;;;;11.95;4.88;;;14.90;99.90;;;;;;5035226;28;20036;-74
2023/08/06 04:48:13;;;;;;;7.47;4.55;;;14.90;99.90;;;;;;5035297;28;20021;-75
2023/08/06 04:50:38;;;;;;;10.57;5.55;;;14.90;99.90;;;;;;5035245;28;20079;-75
2023/08/06 04:53:04;;;;;;;8.70;4.72;;;14.90;99.90;;;;;;5035101;28;20021;-75
2023/08/06 04:55:29;;;;;;;6.18;4.45;;;15.00;99.90;;;;;;5033838;28;20018;-75
2023/08/06 04:57:55;;;;;;;8.30;4.28;;;15.00;99.90;;;;;;5035176;28;20013;-74
2023/08/06 05:00:20;;;;;;;6.20;3.92;;;15.00;99.90;;;;;;5034980;28;20037;-75
2023/08/06 05:02:46;;;;;;;6.57;3.92;;;15.00;99.90;;;;;;5033772;28;20029;-75
2023/08/06 05:05:11;;;;;;;7.25;4.40;;;15.00;99.90;;;;;;5035007;28;20097;-74
2023/08/06 05:07:37;;;;;;;7.78;4.03;;;15.00;99.90;;;;;;5034988;28;20057;-74
2023/08/06 05:10:04;;;;;;;8.93;4.32;;;15.00;99.90;;;;;;5034968;28;20061;-75
2023/08/06 05:12:29;;;;;;;6.28;4.18;;;15.00;99.90;;;;;;5034694;28;20025;-75
2023/08/06 05:14:55;;;;;;;8.85;4.28;;;15.00;99.90;;;;;;5034910;28;20095;-74
2023/08/06 05:17:22;;;;;;;9.35;4.22;;;15.00;99.90;;;;;;5034835;28;20021;-74
2023/08/06 05:19:48;;;;;;;8.52;4.32;;;15.00;99.90;;;;;;5034641;28;20386;-74
2023/08/06 05:22:13;;;;;;;8.23;3.95;;;15.00;99.90;;;;;;5033435;28;20029;-75
2023/08/06 05:24:39;;;;;;;11.52;5.15;;;15.00;99.90;;;;;;5035072;28;20025;-75
2023/08/06 05:27:05;;;;;;;7.57;4.45;;;14.90;99.90;;;;;;5033693;28;20040;-74
2023/08/06 05:29:30;;;;;;;8.75;5.10;;;15.00;99.90;;;;;;5034519;28;20067;-75
2023/08/06 05:31:56;;;;;;;9.20;5.40;;;15.00;99.90;;;;;;5034424;28;20025;-75
2023/08/06 05:34:21;;;;;;;7.95;4.55;;;15.00;99.90;;;;;;5034448;28;20025;-74
2023/08/06 05:36:47;;;;;;;6.85;4.18;;;15.00;99.90;;;;;;5033117;28;20091;-75
2023/08/06 05:39:13;;;;;;;10.07;4.97;;;15.10;99.90;;;;;;5034239;28;20107;-75
2023/08/06 05:41:38;;;;;;;11.05;5.68;;;15.10;99.90;;;;;;5033179;28;20108;-74
2023/08/06 05:44:04;;;;;;;10.95;5.00;;;15.00;99.90;;;;;;5034242;28;20033;-75
2023/08/06 05:46:29;;;;;;;7.50;5.00;;;15.10;99.90;;;;;;5034683;28;20415;-74
2023/08/06 05:48:55;;;;;;;8.75;5.07;;;15.10;99.90;;;;;;5034132;28;20544;-74
2023/08/06 05:51:20;;;;;;;9.57;5.00;;;15.10;99.90;;;;;;5034105;28;20017;-75
2023/08/06 05:53:46;;;;;;;7.15;4.10;;;15.10;99.90;;;;;;5033982;28;20052;-74
2023/08/06 05:56:12;;;;;;;6.25;4.38;;;15.20;99.90;;;;;;5033963;28;20055;-75
2023/08/06 05:58:38;;;;;;;6.80;3.92;;;15.20;99.90;;;;;;5033330;28;20026;-75
2023/08/06 06:01:03;;;;;;;5.88;3.00;;;15.20;99.90;;;;;;5034157;28;20428;-75
2023/08/06 06:03:29;;;;;;;3.85;2.58;;;15.30;99.90;;;;;;5033842;28;20029;-75
2023/08/06 06:05:54;;;;;;;2.42;0.65;;;15.30;99.90;;;;;;5034159;28;20113;-74
2023/08/06 06:08:20;;;;;;;3.42;0.40;;;15.30;99.90;;;;;;5033841;28;20029;-75
2023/08/06 06:10:45;;;;;;;1.20;0.40;;;15.40;99.90;;;;;;5033773;28;20025;-74
2023/08/06 06:13:11;;;;;;;1.05;0.15;;;15.40;99.90;;;;;;5032375;28;20435;-74
2023/08/06 06:15:37;;;;;;;0.20;0.10;;;15.40;99.90;;;;;;5033625;28;20026;-74
2023/08/06 06:18:03;;;;;;;2.35;0.10;;;15.40;99.90;;;;;;5034162;28;20022;-74
2023/08/06 06:20:29;;;;;;;0.35;0.10;;;15.40;99.90;;;;;;5033593;28;20026;-74
2023/08/06 06:22:54;;;;;;;0.20;0.10;;;15.40;99.90;;;;;;5034178;28;20028;-75
2023/08/06 06:25:20;;;;;;;3.55;0.50;;;15.40;99.90;;;;;;5033464;28;20025;-75
2023/08/06 06:27:45;;;;;;;0.55;0.13;;;15.40;99.90;;;;;;5032196;28;20030;-74
2023/08/06 06:30:12;;;;;;;0.22;0.00;;;15.40;99.90;;;;;;5033396;28;20018;-75
2023/08/06 06:32:37;;;;;;;0.60;0.10;;;15.40;99.90;;;;;;5033333;28;20026;-74
2023/08/06 06:35:03;;;;;;;3.22;0.32;;;15.40;99.90;;;;;;5033397;28;20084;-75
2023/08/06 06:37:29;;;;;;;0.93;0.30;;;15.30;99.90;;;;;;5033830;28;20025;-74
2023/08/06 06:39:54;;;;;;;0.43;0.30;;;15.30;99.90;;;;;;5033312;28;20021;-74
2023/08/06 06:42:20;;;;;;;0.30;0.20;;;15.30;99.90;;;;;;5033259;28;20101;-75
2023/08/06 06:44:45;;;;;;;1.17;0.52;;;15.20;99.90;;;;;;5033222;28;20534;-74
2023/08/06 06:47:11;;;;;;;2.47;0.40;;;15.30;99.90;;;;;;5033270;28;20029;-74
2023/08/06 06:49:37;;;;;;;0.85;0.10;;;15.30;99.90;;;;;;5033294;28;20022;-74
2023/08/06 06:52:02;;;;;;;3.58;0.80;;;15.30;99.90;;;;;;5033170;28;20084;-75
2023/08/06 06:54:28;;;;;;;0.43;0.10;;;15.30;99.90;;;;;;5033129;28;20029;-74
2023/08/06 06:56:53;;;;;;;0.32;0.10;;;15.30;99.90;;;;;;5033124;28;20366;-75
2023/08/06 06:59:19;;;;;;;0.40;0.08;;;15.30;99.90;;;;;;5031743;28;20060;-74
2023/08/06 07:01:45;;;;;;;3.13;0.20;;;15.30;99.90;;;;;;5033105;28;20026;-74
2023/08/06 07:04:10;;;;;;;1.65;0.10;;;15.30;99.90;;;;;;5031711;28;20100;-74
2023/08/06 07:06:36;;;;;;;3.60;0.20;;;15.20;99.90;;;;;;5033080;28;20030;-74
2023/08/06 07:09:01;;;;;;;0.40;0.10;;;15.30;99.90;;;;;;5031775;28;20025;-74
2023/08/06 07:11:27;;;;;;;0.40;0.20;;;15.30;99.90;;;;;;5036536;28;20026;-74
2023/08/06 07:13:58;;;;;;;1.17;0.30;;;15.30;99.90;;;;;;5036880;28;20025;-75
2023/08/06 07:16:25;;;;;;;3.83;0.40;;;15.30;99.90;;;;;;5037034;28;20060;-74
2023/08/06 07:18:54;;;;;;;1.38;0.65;;;15.30;99.90;;;;;;5037014;28;20370;-75
2023/08/06 07:21:20;;;;;;;3.45;0.40;;;15.30;99.90;;;;;;5036882;28;20029;-74
2023/08/06 07:23:46;;;;;;;2.67;1.60;;;15.40;99.90;;;;;;5037311;28;20369;-75
2023/08/06 07:26:11;;;;;;;1.25;1.05;;;15.40;99.90;;;;;;5036865;28;20080;-74
2023/08/06 07:28:37;;;;;;;1.20;0.85;;;15.40;99.90;;;;;;5035581;28;20550;-74
2023/08/06 07:31:03;;;;;;;4.53;1.38;;;15.50;99.90;;;;;;5036997;28;20029;-75
2023/08/06 07:33:28;;;;;;;1.90;0.60;;;15.40;99.90;;;;;;5036803;28;20534;-74
2023/08/06 07:35:54;;;;;;;2.83;0.77;;;15.40;99.90;;;;;;5036601;28;20022;-75
2023/08/06 07:38:20;;;;;;;2.40;0.93;;;15.50;99.90;;;;;;5036673;28;20025;-74
2023/08/06 07:40:46;;;;;;;2.47;0.80;;;15.50;99.90;;;;;;5035337;28;20021;-75
2023/08/06 07:43:11;;;;;;;2.28;0.68;;;15.50;99.90;;;;;;5036427;28;20528;-75
2023/08/06 07:45:37;;;;;;;1.45;0.10;;;15.60;99.90;;;;;;5036574;28;20029;-74
2023/08/06 07:48:03;;;;;;;0.57;0.38;;;15.50;99.90;;;;;;5036424;28;20029;-74
2023/08/06 07:50:29;;;;;;;0.90;0.20;;;15.50;99.90;;;;;;5036359;28;20064;-74
2023/08/06 07:52:55;;;;;;;0.90;0.28;;;15.50;99.90;;;;;;5035193;28;20045;-75
2023/08/06 07:55:20;;;;;;;2.13;0.57;;;15.50;99.90;;;;;;5036276;28;20064;-75
2023/08/06 07:57:46;;;;;;;1.45;0.17;;;15.60;99.90;;;;;;5035033;28;20500;-75
2023/08/06 08:00:11;;;;;;;0.95;0.43;;;15.60;99.90;;;;;;5035237;28;20036;-75
2023/08/06 08:02:37;;;;;;;3.05;0.88;;;15.60;99.90;;;;;;5035100;28;20527;-75
2023/08/06 08:05:03;;;;;;;0.70;0.22;;;15.60;99.90;;;;;;5034948;28;20049;-75
2023/08/06 08:07:30;;;;;;;2.22;0.20;;;15.60;99.90;;;;;;5034823;28;20507;-74
2023/08/06 08:09:56;;;;;;;1.42;0.40;;;15.60;99.90;;;;;;5034906;28;20052;-74
2023/08/06 08:12:22;;;;;;;2.40;0.40;;;15.60;99.90;;;;;;5035325;28;20060;-75
2023/08/06 08:14:47;;;;;;;2.80;0.60;;;15.60;99.90;;;;;;5034669;28;20028;-74
2023/08/06 08:17:13;;;;;;;2.92;0.52;;;15.60;99.90;;;;;;5034797;28;20028;-75
2023/08/06 08:19:40;;;;;;;2.33;0.60;;;15.70;99.90;;;;;;5033870;28;20424;-75
2023/08/06 08:22:06;;;;;;;0.70;0.40;;;15.70;99.90;;;;;;5034387;28;20029;-75
2023/08/06 08:24:32;;;;;;;1.85;0.35;;;15.70;99.90;;;;;;5034963;28;20374;-74
2023/08/06 08:26:58;;;;;;;0.77;0.32;;;15.70;99.90;;;;;;5034571;28;20056;-74
2023/08/06 08:29:23;;;;;;;1.30;0.65;;;15.70;99.90;;;;;;5034514;28;20029;-75
2023/08/06 08:31:50;;;;;;;1.85;0.43;;;15.70;99.90;;;;;;5033238;28;20032;-74
2023/08/06 08:34:18;;;;;;;2.35;0.60;;;15.70;99.90;;;;;;5034765;28;20451;-74
2023/08/06 08:36:47;;;;;;;1.52;0.52;;;15.70;99.90;;;;;;5033222;28;20053;-75
2023/08/06 08:39:13;;;;;;;1.02;0.40;;;15.70;99.90;;;;;;5033118;28;20508;-74
2023/08/06 08:41:39;;;;;;;2.38;0.90;;;15.60;99.90;;;;;;5034364;28;20033;-74
2023/08/06 08:44:09;;;;;;;2.08;1.20;;;15.70;99.90;;;;;;5034465;28;20037;-74
2023/08/06 08:46:36;;;;;;;2.78;1.08;;;15.70;99.90;;;;;;5033161;28;20013;-74
2023/08/06 08:49:02;;;;;;;2.50;0.80;;;15.70;99.90;;;;;;5034629;28;20596;-74
2023/08/06 08:51:28;;;;;;;2.80;1.27;;;15.80;99.90;;;;;;5034296;28;20025;-74
2023/08/06 08:53:58;;;;;;;1.75;0.95;;;15.80;99.90;;;;;;5032753;28;20022;-75
2023/08/06 08:56:24;;;;;;;1.98;1.13;;;15.80;99.90;;;;;;5032829;28;20079;-74
2023/08/06 08:58:52;;;;;;;1.63;0.95;;;15.80;99.90;;;;;;4995220;28;1125390;-76
2023/08/06 09:01:18;;;;;;;0.65;0.40;;;15.80;99.90;;;;;;5035155;28;20024;-75
2023/08/06 09:03:45;;;;;;;1.38;0.95;;;15.90;99.90;;;;;;5033951;28;20025;-75
2023/08/06 09:06:12;;;;;;;2.08;0.63;;;15.90;99.90;;;;;;5034144;28;20053;-75
2023/08/06 09:08:45;;;;;;;2.33;0.80;;;15.90;99.90;;;;;;5035340;28;20026;-75
2023/08/06 09:11:12;;;;;;;4.45;1.45;;;15.90;99.90;;;;;;5035775;28;20025;-74
2023/08/06 09:13:38;;;;;;;2.15;1.02;;;15.90;99.90;;;;;;5033678;28;20026;-74
2023/08/06 09:16:04;;;;;;;2.72;1.05;;;15.90;99.90;;;;;;5033765;28;20025;-74
2023/08/06 09:18:30;;;;;;;3.17;0.60;;;15.90;99.90;;;;;;5035455;28;20014;-74
2023/08/06 09:20:57;;;;;;;2.80;0.45;;;16.00;99.90;;;;;;5035253;28;20479;-75
2023/08/06 09:23:33;;;;;;;4.32;0.90;;;15.90;99.90;;;;;;5034710;28;20619;-74
2023/08/06 09:25:59;;;;;;;2.53;0.68;;;15.90;99.90;;;;;;5033447;28;20021;-74
2023/08/06 09:28:36;;;;;;;1.23;0.70;;;15.90;99.90;;;;;;5034667;28;20032;-74
2023/08/06 09:31:01;;;;;;;4.35;1.05;;;15.90;99.90;;;;;;5035147;28;20021;-74
2023/08/06 09:33:29;;;;;;;2.58;0.80;;;15.90;99.90;;;;;;5033901;28;20117;-74
2023/08/06 09:35:55;;;;;;;1.67;0.55;;;15.90;99.90;;;;;;5033260;28;20159;-74
2023/08/06 09:38:20;;;;;;;1.05;0.70;;;16.00;99.90;;;;;;5033132;28;20063;-74
2023/08/06 09:40:47;;;;;;;1.63;0.50;;;16.10;99.90;;;;;;5033466;28;20025;-74
2023/08/06 09:43:13;;;;;;;11.50;3.92;;;16.10;99.90;;;;;;5033299;28;20116;-74
2023/08/06 09:45:39;;;;;;;3.40;1.55;;;16.20;99.90;;;;;;5034664;28;20084;-74
2023/08/06 09:48:06;;;;;;;3.03;0.63;;;16.20;99.90;;;;;;5034539;28;20025;-74
2023/08/06 09:50:35;;;;;;;1.75;0.60;;;16.40;99.90;;;;;;5034665;28;20083;-75
2023/08/06 09:53:01;;;;;;;1.98;0.88;;;16.30;99.90;;;;;;5034933;28;20487;-74
2023/08/06 09:55:27;;;;;;;1.45;0.47;;;16.30;99.90;;;;;;5034107;28;20021;-74
2023/08/06 09:57:53;;;;;;;2.08;0.50;;;16.40;99.90;;;;;;5034504;28;20028;-74
2023/08/06 10:00:19;;;;;;;2.75;0.80;;;16.40;99.90;;;;;;5034114;28;20407;-74
2023/08/06 10:02:45;;;;;;;1.40;0.50;;;16.50;99.90;;;;;;5034341;28;20104;-74
2023/08/06 10:05:11;;;;;;;1.20;0.50;;;16.70;99.90;;;;;;5033899;28;20061;-75
2023/08/06 10:07:40;;;;;;;2.80;0.60;;;16.80;99.90;;;;;;5034063;28;20053;-74
2023/08/06 10:10:07;;;;;;;3.42;0.47;;;16.90;99.90;;;;;;5033867;28;20022;-74
2023/08/06 10:12:50;;;;;;;4.10;0.75;;;16.90;99.90;;;;;;5033903;28;20029;-75
2023/08/06 10:15:19;;;;;;;2.25;0.38;;;17.00;99.90;;;;;;5033736;28;20018;-74
2023/08/06 10:17:49;;;;;;;2.65;0.55;;;17.00;99.90;;;;;;5033722;28;20385;-75
2023/08/06 10:20:15;;;;;;;1.02;0.30;;;16.90;99.90;;;;;;5032465;28;20022;-75
2023/08/06 10:22:45;;;;;;;1.38;0.35;;;17.00;99.90;;;;;;5034410;28;20032;-74
2023/08/06 10:25:10;;;;;;;2.08;0.28;;;17.00;99.90;;;;;;5032726;28;20381;-74
2023/08/06 10:27:48;;;;;;;0.40;0.10;;;17.10;99.90;;;;;;5034032;28;20029;-74
2023/08/06 10:30:33;;;;;;;0.80;0.40;;;17.00;99.90;;;;;;5033921;28;20040;-74
2023/08/06 10:33:04;;;;;;;1.35;0.10;;;17.10;99.90;;;;;;5033550;28;20072;-75
2023/08/06 10:35:49;;;;;;;2.70;0.65;;;17.10;99.90;;;;;;5033336;28;20104;-74
2023/08/06 10:38:21;;;;;;;3.35;0.50;;;17.10;99.90;;;;;;5032323;28;20024;-74
2023/08/06 10:41:05;;;;;;;0.30;0.10;;;17.20;99.90;;;;;;5032300;28;20029;-74
2023/08/06 10:43:35;;;;;;;4.20;0.50;;;17.30;99.90;;;;;;5032322;28;20135;-74
2023/08/06 10:46:09;;;;;;;0.93;0.10;;;17.40;99.90;;;;;;5033515;28;20025;-74
2023/08/06 10:48:37;;;;;;;1.98;0.55;;;17.40;99.90;;;;;;5032220;28;20059;-74
2023/08/06 10:51:04;;;;;;;2.80;0.10;;;17.50;99.90;;;;;;5033437;28;20033;-75
2023/08/06 10:53:30;;;;;;;1.77;0.40;;;17.60;99.90;;;;;;5033208;28;20427;-75
2023/08/06 10:55:55;;;;;;;2.00;0.20;;;17.60;99.90;;;;;;5033895;28;20021;-75
2023/08/06 10:58:21;;;;;;;2.50;0.00;;;17.60;99.90;;;;;;5033096;28;20056;-75
2023/08/06 11:00:47;;;;;;;1.15;0.20;;;17.70;99.90;;;;;;5033269;28;20029;-74
2023/08/06 11:03:12;;;;;;;1.75;0.25;;;17.70;99.90;;;;;;5031864;28;20477;-74
2023/08/06 11:05:39;;;;;;;0.73;0.15;;;17.70;99.90;;;;;;5031928;28;20026;-75
2023/08/06 11:08:04;;;;;;;2.17;0.43;;;17.80;99.90;;;;;;5033254;28;20423;-74
2023/08/06 11:10:32;;;;;;;1.08;0.00;;;17.80;99.90;;;;;;5033491;28;20033;-74
2023/08/06 11:13:02;;;;;;;0.80;0.00;;;17.80;99.90;;;;;;5033550;28;20068;-75
2023/08/06 11:15:27;;;;;;;1.70;0.15;;;17.70;99.90;;;;;;5033127;28;20100;-74
2023/08/06 11:17:53;;;;;;;0.17;0.00;;;17.80;99.90;;;;;;5033430;28;20446;-74
2023/08/06 11:20:21;;;;;;;1.65;0.10;;;17.80;99.90;;;;;;5033186;28;20053;-74
2023/08/06 11:22:47;;;;;;;3.70;0.45;;;17.60;99.90;;;;;;5033589;28;20021;-74
2023/08/06 11:25:12;;;;;;;0.73;0.20;;;17.70;99.90;;;;;;5032899;28;20496;-75
2023/08/06 11:27:38;;;;;;;2.40;0.00;;;17.60;99.90;;;;;;5033064;28;20501;-74
2023/08/06 11:30:04;;;;;;;1.60;0.15;;;17.70;99.90;;;;;;5033131;28;20022;-75
2023/08/06 11:32:30;;;;;;;1.15;0.10;;;17.70;99.90;;;;;;5032957;28;20026;-73
2023/08/06 11:34:56;;;;;;;0.95;0.20;;;17.60;99.90;;;;;;5033430;28;20021;-75
2023/08/06 11:37:25;;;;;;;1.25;0.00;;;17.60;99.90;;;;;;5032947;28;20026;-74
2023/08/06 11:39:51;;;;;;;0.50;0.00;;;17.50;99.90;;;;;;5031828;28;20080;-74
2023/08/06 11:42:17;;;;;;;1.02;0.00;;;17.50;99.90;;;;;;5032956;28;20036;-75
2023/08/06 11:44:46;;;;;;;0.30;0.00;;;17.50;99.90;;;;;;5032728;28;20096;-74
2023/08/06 11:47:17;;;;;;;1.02;0.00;;;17.30;99.90;;;;;;5032893;28;20026;-74
2023/08/06 11:49:46;;;;;;;0.95;0.00;;;17.20;99.90;;;;;;5032965;28;20029;-74
2023/08/06 11:52:15;;;;;;;0.08;0.00;;;17.20;99.90;;;;;;5032859;28;20435;-74
2023/08/06 11:54:41;;;;;;;3.05;0.00;;;17.10;99.90;;;;;;5032737;28;20075;-74
2023/08/06 11:57:08;;;;;;;1.45;0.40;;;17.10;99.90;;;;;;5033649;28;20108;-74
2023/08/06 11:59:34;;;;;;;2.00;0.57;;;17.10;99.90;;;;;;5034974;28;20041;-74
2023/08/06 12:02:07;;;;;;;10.77;0.00;;;17.10;99.90;;;;;;5036460;28;20024;-74
2023/08/06 12:04:58;;;;;;;3.92;0.00;;;17.00;99.90;;;;;;5035097;28;20515;-74
2023/08/06 12:07:30;;;;;;;0.65;0.00;;;16.90;99.90;;;;;;5034937;28;20021;-74
2023/08/06 12:09:55;;;;;;;1.70;0.00;;;17.00;99.90;;;;;;5035144;28;20445;-74
2023/08/06 12:12:21;;;;;;;1.08;0.00;;;17.00;99.90;;;;;;5036039;28;20108;-75
2023/08/06 12:14:46;;;;;;;0.90;0.00;;;17.00;99.90;;;;;;5036664;28;20025;-75
2023/08/06 12:17:12;;;;;;;0.85;0.00;;;17.10;99.90;;;;;;5036309;28;20100;-74
2023/08/06 12:19:37;;;;;;;1.25;0.00;;;17.10;99.90;;;;;;5035017;28;20017;-75
2023/08/06 12:22:03;;;;;;;3.70;0.00;;;17.20;99.90;;;;;;5036703;28;20029;-75
2023/08/06 12:24:31;;;;;;;0.63;0.10;;;17.20;99.90;;;;;;5036612;28;20091;-75
2023/08/06 12:26:57;;;;;;;1.25;0.03;;;17.30;99.90;;;;;;5036134;28;20071;-74
2023/08/06 12:29:23;;;;;;;1.65;0.00;;;17.40;99.90;;;;;;5036076;28;20384;-75
2023/08/06 12:31:49;;;;;;;3.08;0.10;;;17.50;99.90;;;;;;5036446;28;20028;-75
2023/08/06 12:34:14;;;;;;;0.00;0.00;;;17.50;99.90;;;;;;5034564;28;20022;-74
2023/08/06 12:36:40;;;;;;;0.03;0.00;;;17.60;99.90;;;;;;5035937;28;20028;-74
2023/08/06 12:39:05;;;;;;;0.47;0.15;;;17.60;99.90;;;;;;5034614;28;20025;-74
2023/08/06 12:41:31;;;;;;;0.35;0.05;;;17.60;99.90;;;;;;5035500;28;20025;-75
2023/08/06 12:43:57;;;;;;;0.63;0.15;;;17.60;99.90;;;;;;5036113;28;20025;-75